Portada
METAR-TAF:

METAR-TAF

Aeroports :

Dakar, Senegal

latitud: 14-44N, longitud: 017-30W, altitud: 27 m

Observació

L'informe es va fer fa 1 hora i 54 minuts, a les 03:00 UTC
Vent 8 kt del Oest/Sud-Oest
Temperatura 26°C
Humitat 89%
Pressió 1012 hPa
Visibilitat: 8000 m
Núvols disperses a una alçada de 1300 ft

METAR: GOOY 210300Z 24008KT 8000 SCT013 26/24 Q1012

Hora: 04:54 (04:54 UTC)

Pronòstic

L'informe es va fer fa 5 hores i 24 minuts, a les 23:30 UTC
Pronòstic vàlid del 21 a les 00 UTC al 22 a les 06 UTC
Vent 7 kt del Oest/Sud-Oest
Visibilitat: 8000 m
Núvols disperses a una alçada de 1300 ft
Probabilitat 30% :
Temporalment
l' 21 a les 01 UTC al 21 a les 06 UTC
Visibilitat: 4500 m
Cel ennuvolat a una alçada de 1200 ft
Escasses núvols a una alçada de 2500 ft, Cumulonimbus.
tempesta, pluja

TAF: GOOY 202330Z 2100/2206 24007KT 8000 SCT013 PROB30 TEMPO 2101/2106 4500 TSRA BKN012 FEW025CB

Observacions i pronòstics meteorològics de més de 4000 aeroports (METAR i TAF).

Les estacions disponibles són els punts grocs i vermells al mapa.

Posi el ratolí al punt desitjat per veure el nom de l'estació.

Feu clic per veure les observacions i els pronòstics meteorològics.

Per canviar el mapa: feu clic els botons verds amb una creu de color negre per apropar; al botó verd amb un guió per allunyar la imatge; o en les fletxes verdes per a mapes adjacents.


METAR-TAF: